Time;durP1;ratioP1;P1;durP2;ratioP2;P2;SDS_P1;SDS_P2;PMS_P1;PMS_P2;Temp;Humidity;BMP_temperature;BMP_pressure;BME280_temperature;BME280_humidity;BME280_pressure;Samples;Min_cycle;Max_cycle;Signal;HPM_P1;HPM_P2
2022/06/01 00:00:24;;;;;;;14.45;13.15;;;13.20;99.90;;;;;;4953121;28;20058;-36
2022/06/01 00:02:49;;;;;;;12.82;11.63;;;13.10;99.90;;;;;;4953238;28;20054;-35
2022/06/01 00:05:15;;;;;;;12.43;11.25;;;13.10;99.90;;;;;;4953091;29;20606;-35
2022/06/01 00:07:40;;;;;;;12.82;11.63;;;13.00;99.90;;;;;;4950223;28;20027;-36
2022/06/01 00:10:06;;;;;;;14.55;13.15;;;13.00;99.90;;;;;;4950226;29;20530;-36
2022/06/01 00:12:34;;;;;;;13.85;12.55;;;12.90;99.90;;;;;;4949780;28;20027;-37
2022/06/01 00:15:03;;;;;;;16.88;13.35;;;12.90;99.90;;;;;;4950020;28;20470;-36
2022/06/01 00:17:28;;;;;;;12.30;11.20;;;12.90;99.90;;;;;;4949979;28;20395;-35
2022/06/01 00:19:54;;;;;;;13.88;12.48;;;12.90;99.90;;;;;;4950835;28;20031;-36
2022/06/01 00:22:20;;;;;;;14.80;13.40;;;12.90;99.90;;;;;;4949964;29;20038;-35
2022/06/01 00:24:47;;;;;;;13.70;12.38;;;12.90;99.90;;;;;;4949860;29;20058;-35
2022/06/01 00:27:14;;;;;;;15.43;14.02;;;12.90;99.90;;;;;;4950055;28;20150;-35
2022/06/01 00:29:40;;;;;;;14.63;13.32;;;12.80;99.90;;;;;;4949699;28;20038;-35
2022/06/01 00:32:11;;;;;;;14.00;12.75;;;12.80;99.90;;;;;;4949756;29;20027;-36
2022/06/01 00:34:37;;;;;;;15.10;13.60;;;12.80;99.90;;;;;;4949442;28;20039;-35
2022/06/01 00:37:03;;;;;;;13.82;12.63;;;12.80;99.90;;;;;;4949450;28;20079;-36
2022/06/01 00:39:28;;;;;;;14.82;13.32;;;12.80;99.90;;;;;;4949397;28;20028;-35
2022/06/01 00:41:54;;;;;;;14.52;13.25;;;12.80;99.90;;;;;;4949154;28;20034;-36
2022/06/01 00:44:20;;;;;;;14.75;13.43;;;12.80;99.90;;;;;;4949305;28;20039;-34
2022/06/01 00:46:45;;;;;;;15.43;14.02;;;12.90;99.90;;;;;;4949909;29;20045;-35
2022/06/01 00:49:19;;;;;;;15.27;13.88;;;12.80;99.90;;;;;;4950047;29;20039;-35
2022/06/01 00:51:46;;;;;;;13.98;12.68;;;12.90;99.90;;;;;;4948830;28;20499;-35
2022/06/01 00:54:13;;;;;;;14.05;12.60;;;12.90;99.90;;;;;;4949550;28;20039;-36
2022/06/01 00:56:43;;;;;;;15.27;13.77;;;12.90;99.90;;;;;;4949229;28;20030;-36
2022/06/01 00:59:13;;;;;;;13.45;12.25;;;12.80;99.90;;;;;;4949762;28;20505;-36
2022/06/01 01:01:39;;;;;;;13.45;12.15;;;12.80;99.90;;;;;;4949673;28;20039;-35
2022/06/01 01:04:06;;;;;;;14.48;13.18;;;12.80;99.90;;;;;;4948687;29;20031;-36
2022/06/01 01:06:36;;;;;;;13.57;12.38;;;12.80;99.90;;;;;;4948795;28;20546;-35
2022/06/01 01:09:03;;;;;;;14.75;12.55;;;12.80;99.90;;;;;;4949451;28;20537;-35
2022/06/01 01:11:33;;;;;;;13.85;12.55;;;12.80;99.90;;;;;;4948215;28;20212;-35
2022/06/01 01:13:59;;;;;;;14.00;12.60;;;12.80;99.90;;;;;;4949852;28;20042;-35
2022/06/01 01:16:26;;;;;;;11.43;10.43;;;12.80;99.90;;;;;;4949276;28;20031;-35
2022/06/01 01:18:54;;;;;;;11.18;10.18;;;12.80;99.90;;;;;;4947268;28;20094;-35
2022/06/01 01:21:56;;;;;;;12.32;11.23;;;12.70;99.90;;;;;;4949146;28;20039;-36
2022/06/01 01:24:31;;;;;;;14.23;12.90;;;12.70;99.90;;;;;;4947392;29;20039;-35
2022/06/01 01:26:56;;;;;;;14.68;13.32;;;12.60;99.90;;;;;;4949099;29;20449;-36
2022/06/01 01:29:38;;;;;;;14.90;13.57;;;12.50;99.90;;;;;;4949185;29;20110;-35
2022/06/01 01:32:06;;;;;;;12.60;11.40;;;12.50;99.90;;;;;;4948260;28;20483;-36
2022/06/01 01:34:36;;;;;;;14.75;13.25;;;12.40;99.90;;;;;;4945285;29;20840;-35
2022/06/01 01:37:07;;;;;;;14.13;12.73;;;12.40;99.90;;;;;;4948888;28;20046;-36
2022/06/01 01:39:35;;;;;;;13.95;12.65;;;12.40;99.90;;;;;;4946452;29;20027;-36
2022/06/01 01:42:01;;;;;;;15.25;13.50;;;12.40;99.90;;;;;;4948924;28;20467;-36
2022/06/01 01:44:40;;;;;;;12.88;11.68;;;12.40;99.90;;;;;;4948063;28;20023;-37
2022/06/01 01:47:06;;;;;;;12.80;11.70;;;12.40;99.90;;;;;;4948932;28;20038;-36
2022/06/01 01:49:34;;;;;;;11.93;10.73;;;12.40;99.90;;;;;;4948318;28;20610;-35
2022/06/01 01:52:04;;;;;;;13.25;12.00;;;12.40;99.90;;;;;;4948652;28;20053;-35
2022/06/01 01:54:55;;;;;;;10.40;9.43;;;12.40;99.90;;;;;;4947290;28;20035;-37
2022/06/01 01:57:48;;;;;;;12.63;11.32;;;12.40;99.90;;;;;;4929224;29;20035;-35
2022/06/01 02:00:15;;;;;;;13.68;11.52;;;12.40;99.90;;;;;;4946279;29;20483;-35
2022/06/01 02:02:57;;;;;;;12.00;10.80;;;12.50;99.90;;;;;;4948656;28;20039;-36
2022/06/01 02:08:21;;;;;;;14.23;12.90;;;12.50;99.90;;;;;;4947845;29;20486;-35
2022/06/01 02:13:31;;;;;;;11.68;10.55;;;12.60;99.90;;;;;;4948370;29;20057;-36
2022/06/01 02:15:59;;;;;;;13.02;11.73;;;12.60;99.90;;;;;;4947873;29;20467;-36
2022/06/01 02:18:35;;;;;;;12.98;11.68;;;12.60;99.90;;;;;;4947533;28;20087;-36
2022/06/01 02:21:07;;;;;;;12.70;11.50;;;12.60;99.90;;;;;;4948842;28;20027;-36
2022/06/01 02:23:33;;;;;;;11.73;10.63;;;12.60;99.90;;;;;;4948274;28;20103;-43
2022/06/01 02:26:01;;;;;;;10.55;9.45;;;12.60;99.90;;;;;;4947966;29;20046;-35
2022/06/01 02:28:27;;;;;;;9.52;8.73;;;12.60;99.90;;;;;;4947724;28;20027;-35
2022/06/01 02:30:55;;;;;;;7.82;7.20;;;12.60;99.90;;;;;;4947439;28;20027;-35
2022/06/01 02:33:24;;;;;;;12.27;10.75;;;12.60;99.90;;;;;;4948019;28;20020;-35
2022/06/01 02:35:53;;;;;;;10.05;9.15;;;12.50;99.90;;;;;;4947770;28;20102;-35
2022/06/01 02:38:38;;;;;;;10.82;9.73;;;12.50;99.90;;;;;;4948242;29;20383;-35
2022/06/01 02:41:04;;;;;;;10.95;9.85;;;12.50;99.90;;;;;;4948019;28;20490;-37
2022/06/01 02:43:30;;;;;;;10.35;9.45;;;12.50;99.90;;;;;;4946839;28;20509;-36
2022/06/01 02:45:56;;;;;;;9.90;8.93;;;12.50;99.90;;;;;;4947811;28;20023;-34
2022/06/01 02:48:22;;;;;;;10.50;9.48;;;12.50;99.90;;;;;;4947704;29;20036;-35
2022/06/01 02:50:48;;;;;;;9.80;8.90;;;12.50;99.90;;;;;;4947177;29;20031;-35
2022/06/01 02:53:13;;;;;;;9.40;8.50;;;12.40;99.90;;;;;;4947700;29;20078;-35
2022/06/01 02:55:39;;;;;;;9.18;8.27;;;12.50;99.90;;;;;;4946874;29;20115;-35
2022/06/01 02:58:05;;;;;;;7.90;7.20;;;12.50;99.90;;;;;;4947768;29;20023;-34
2022/06/01 03:00:35;;;;;;;6.93;6.32;;;12.50;99.90;;;;;;4947116;28;20368;-35
2022/06/01 03:03:02;;;;;;;8.00;7.25;;;12.50;99.90;;;;;;4948110;28;20122;-34
2022/06/01 03:05:31;;;;;;;7.78;7.07;;;12.40;99.90;;;;;;4946681;28;20245;-34
2022/06/01 03:07:58;;;;;;;7.47;6.78;;;12.40;99.90;;;;;;4947945;28;20023;-35
2022/06/01 03:10:23;;;;;;;7.95;7.03;;;12.40;99.90;;;;;;4947471;28;20126;-35
2022/06/01 03:12:50;;;;;;;8.68;7.45;;;12.40;99.90;;;;;;4947907;28;20138;-34
2022/06/01 03:15:18;;;;;;;7.82;7.13;;;12.40;99.90;;;;;;4947680;28;20039;-36
2022/06/01 03:17:44;;;;;;;6.97;6.38;;;12.40;99.90;;;;;;4947161;28;20482;-35
2022/06/01 03:20:11;;;;;;;6.90;6.25;;;12.40;99.90;;;;;;4947669;28;20107;-35
2022/06/01 03:22:39;;;;;;;7.28;6.57;;;12.40;99.90;;;;;;4947352;28;20039;-34
2022/06/01 03:25:08;;;;;;;8.05;7.35;;;12.40;99.90;;;;;;4947714;28;20106;-34
2022/06/01 03:27:34;;;;;;;7.22;6.53;;;12.40;99.90;;;;;;4947159;28;20028;-35
2022/06/01 03:30:00;;;;;;;6.60;6.03;;;12.40;99.90;;;;;;4947793;29;20054;-35
2022/06/01 03:32:26;;;;;;;6.78;5.93;;;12.30;99.90;;;;;;4946765;28;20058;-34
2022/06/01 03:34:52;;;;;;;7.70;7.00;;;12.30;99.90;;;;;;4947351;28;20138;-36
2022/06/01 03:37:18;;;;;;;6.68;6.07;;;12.20;99.90;;;;;;4947507;28;20026;-36
2022/06/01 03:39:43;;;;;;;7.05;6.45;;;12.20;99.90;;;;;;4946954;29;20023;-35
2022/06/01 03:42:09;;;;;;;7.38;6.70;;;12.20;99.90;;;;;;4947756;28;20019;-35
2022/06/01 03:47:19;;;;;;;6.95;6.35;;;12.10;99.90;;;;;;4950016;28;20042;-36
2022/06/01 03:49:44;;;;;;;7.18;6.47;;;12.10;99.90;;;;;;4950630;28;20114;-36
2022/06/01 03:52:10;;;;;;;7.50;6.80;;;12.00;99.90;;;;;;4950736;28;20047;-38
2022/06/01 03:54:37;;;;;;;7.22;6.45;;;12.00;99.90;;;;;;4939688;29;20060;-36
2022/06/01 03:57:03;;;;;;;7.18;6.47;;;11.90;99.90;;;;;;4950630;28;20027;-36
2022/06/01 03:59:30;;;;;;;6.95;6.28;;;11.90;99.90;;;;;;4950220;29;20082;-36
2022/06/01 04:01:59;;;;;;;7.20;6.53;;;11.90;99.90;;;;;;4950173;28;20034;-36
2022/06/01 04:04:24;;;;;;;6.65;6.00;;;11.90;99.90;;;;;;4950594;28;20039;-36
2022/06/01 04:06:50;;;;;;;7.00;6.30;;;11.80;99.90;;;;;;4950414;29;20078;-36
2022/06/01 04:09:15;;;;;;;7.78;6.63;;;11.80;99.90;;;;;;4950199;29;20487;-37
2022/06/01 04:11:41;;;;;;;6.40;5.85;;;11.80;99.90;;;;;;4950145;29;20074;-36
2022/06/01 04:14:07;;;;;;;7.10;6.43;;;11.80;99.90;;;;;;4950230;28;20086;-36
2022/06/01 04:16:33;;;;;;;6.90;6.30;;;11.80;99.90;;;;;;4949907;29;20027;-37
2022/06/01 04:18:59;;;;;;;6.18;5.57;;;11.80;99.90;;;;;;4950269;28;20027;-36
2022/06/01 04:21:27;;;;;;;7.15;6.55;;;11.80;99.90;;;;;;4949238;28;20024;-38
2022/06/01 04:23:59;;;;;;;7.05;6.43;;;11.80;99.90;;;;;;4950546;28;20461;-37
2022/06/01 04:26:25;;;;;;;6.82;6.10;;;11.90;99.90;;;;;;4950125;28;20495;-37
2022/06/01 04:28:52;;;;;;;7.35;6.72;;;11.90;99.90;;;;;;4949412;28;20391;-36
2022/06/01 04:31:18;;;;;;;8.10;7.30;;;12.00;99.90;;;;;;4949939;28;20479;-35
2022/06/01 04:33:43;;;;;;;8.13;7.43;;;12.00;99.90;;;;;;4949558;29;20035;-35
2022/06/01 04:36:09;;;;;;;8.43;7.72;;;12.00;99.90;;;;;;4949929;29;20035;-35
2022/06/01 04:38:35;;;;;;;8.45;7.65;;;12.10;99.90;;;;;;4949746;28;20303;-34
2022/06/01 04:41:01;;;;;;;9.15;8.10;;;12.10;99.90;;;;;;4950318;29;20073;-35
2022/06/01 04:43:26;;;;;;;9.93;8.98;;;12.20;99.90;;;;;;4948898;29;20027;-35
2022/06/01 04:45:53;;;;;;;9.80;8.80;;;12.30;99.90;;;;;;4949832;29;20028;-37
2022/06/01 04:48:19;;;;;;;11.40;10.30;;;12.40;99.90;;;;;;4950088;28;20038;-36
2022/06/01 04:50:45;;;;;;;11.45;10.38;;;12.40;99.90;;;;;;4948594;28;20038;-36
2022/06/01 04:53:15;;;;;;;12.38;11.18;;;12.50;99.90;;;;;;4950112;28;20411;-35
2022/06/01 04:55:43;;;;;;;15.25;13.65;;;12.50;99.90;;;;;;4949277;28;20122;-36
2022/06/01 04:58:09;;;;;;;14.75;13.25;;;12.50;99.90;;;;;;4948940;28;20031;-35
2022/06/01 05:00:35;;;;;;;15.10;13.60;;;12.60;99.90;;;;;;4949638;28;20027;-36
2022/06/01 05:03:01;;;;;;;15.25;13.65;;;12.60;99.90;;;;;;4948949;28;20059;-35
2022/06/01 05:05:27;;;;;;;11.32;10.23;;;12.60;99.90;;;;;;4948938;28;20035;-36
2022/06/01 05:07:52;;;;;;;17.05;15.35;;;12.70;99.90;;;;;;4949463;28;20541;-38
2022/06/01 05:10:21;;;;;;;14.75;13.35;;;12.70;99.90;;;;;;4948326;29;20522;-36
2022/06/01 05:12:46;;;;;;;14.60;13.10;;;12.70;99.90;;;;;;4949056;28;20097;-34
2022/06/01 05:15:12;;;;;;;15.38;13.82;;;12.60;99.90;;;;;;4949063;28;20578;-36
2022/06/01 05:17:38;;;;;;;13.77;12.43;;;12.60;99.90;;;;;;4948906;28;20031;-36
2022/06/01 05:20:04;;;;;;;15.90;14.18;;;12.60;99.90;;;;;;4949343;29;20081;-36
2022/06/01 05:22:30;;;;;;;16.33;14.70;;;12.50;99.90;;;;;;4948299;28;20063;-34
2022/06/01 05:24:55;;;;;;;16.17;14.55;;;12.50;99.90;;;;;;4949073;29;20074;-36
2022/06/01 05:27:22;;;;;;;16.65;14.88;;;12.50;99.90;;;;;;4949071;28;20063;-36
2022/06/01 05:29:47;;;;;;;13.52;12.20;;;12.50;99.90;;;;;;4949390;28;20055;-36
2022/06/01 05:32:13;;;;;;;15.93;14.10;;;12.50;99.90;;;;;;4948326;29;20055;-36
2022/06/01 05:34:39;;;;;;;14.55;13.15;;;12.50;99.90;;;;;;4949014;28;20071;-35
2022/06/01 05:37:05;;;;;;;14.20;12.80;;;12.40;99.90;;;;;;4948513;28;20027;-36
2022/06/01 05:39:30;;;;;;;14.10;12.70;;;12.50;99.90;;;;;;4947940;29;20122;-36
2022/06/01 05:41:56;;;;;;;11.88;10.75;;;12.50;99.90;;;;;;4949090;29;20138;-36
2022/06/01 05:44:21;;;;;;;14.70;13.23;;;12.50;99.90;;;;;;4946475;29;20122;-35
2022/06/01 05:46:55;;;;;;;14.07;12.52;;;12.50;99.90;;;;;;4945686;29;20023;-35
2022/06/01 05:49:21;;;;;;;15.30;13.65;;;12.40;99.90;;;;;;4947744;28;20078;-35
2022/06/01 05:51:50;;;;;;;12.73;11.43;;;12.40;99.90;;;;;;4947480;29;20059;-37
2022/06/01 05:54:16;;;;;;;13.55;12.25;;;12.40;99.90;;;;;;4947484;28;20045;-35
2022/06/01 05:56:42;;;;;;;12.30;11.00;;;12.50;99.90;;;;;;4945216;29;20023;-33
2022/06/01 05:59:07;;;;;;;13.18;11.82;;;12.40;99.90;;;;;;4947600;28;20032;-36
2022/06/01 06:01:33;;;;;;;12.63;10.95;;;12.50;99.90;;;;;;4946299;29;20371;-36
2022/06/01 06:03:59;;;;;;;12.82;11.52;;;12.50;99.90;;;;;;4947878;28;20427;-35
2022/06/01 06:06:25;;;;;;;12.75;11.45;;;12.50;99.90;;;;;;4945396;28;20029;-35
2022/06/01 06:08:52;;;;;;;11.52;9.52;;;12.50;99.90;;;;;;4947973;28;20031;-35
2022/06/01 06:11:19;;;;;;;11.82;10.20;;;12.60;99.90;;;;;;4946923;28;20034;-37
2022/06/01 06:13:45;;;;;;;10.93;9.82;;;12.60;99.90;;;;;;4946484;28;20510;-36
2022/06/01 06:16:12;;;;;;;8.93;8.02;;;12.60;99.90;;;;;;4947463;28;20173;-37
2022/06/01 06:18:38;;;;;;;9.30;8.40;;;12.70;99.90;;;;;;4946897;28;20106;-36
2022/06/01 06:21:04;;;;;;;8.05;7.30;;;12.70;99.90;;;;;;4947023;29;20459;-37
2022/06/01 06:23:30;;;;;;;8.65;7.75;;;12.70;99.90;;;;;;4946820;28;20020;-37
2022/06/01 06:25:56;;;;;;;9.18;8.38;;;12.80;99.90;;;;;;4947143;29;20031;-36
2022/06/01 06:28:21;;;;;;;7.88;7.07;;;12.80;99.90;;;;;;4946354;28;20023;-38
2022/06/01 06:30:47;;;;;;;9.43;8.52;;;12.90;99.90;;;;;;4946851;29;20138;-36
2022/06/01 06:33:12;;;;;;;8.18;7.38;;;12.90;99.90;;;;;;4947137;29;20026;-35
2022/06/01 06:35:38;;;;;;;8.85;8.05;;;12.90;99.90;;;;;;4946217;29;20399;-36
2022/06/01 06:38:05;;;;;;;7.88;7.18;;;13.00;99.90;;;;;;4947696;28;20027;-35
2022/06/01 06:40:31;;;;;;;10.48;9.05;;;13.00;99.90;;;;;;4948371;28;20038;-35
2022/06/01 06:42:59;;;;;;;8.45;7.65;;;13.10;99.90;;;;;;4947046;28;20019;-36
2022/06/01 06:45:25;;;;;;;11.25;10.07;;;13.10;99.90;;;;;;4947105;29;20134;-36
2022/06/01 06:47:50;;;;;;;11.38;9.55;;;13.10;99.90;;;;;;4947587;29;20035;-36
2022/06/01 06:50:18;;;;;;;11.10;10.00;;;13.10;99.90;;;;;;4945951;29;20027;-35
2022/06/01 06:52:44;;;;;;;9.30;8.38;;;13.20;99.90;;;;;;4946724;28;20051;-35
2022/06/01 06:55:10;;;;;;;9.60;8.68;;;13.20;99.90;;;;;;4947830;29;20039;-37
2022/06/01 06:57:36;;;;;;;9.23;8.18;;;13.20;99.90;;;;;;4946404;29;20554;-36
2022/06/01 07:00:07;;;;;;;8.95;8.05;;;13.30;99.90;;;;;;4946835;28;20131;-35
2022/06/01 07:02:33;;;;;;;7.97;7.17;;;13.40;99.90;;;;;;4946781;28;20427;-35
2022/06/01 07:04:59;;;;;;;5.50;5.00;;;13.60;99.90;;;;;;4947297;28;20117;-34
2022/06/01 07:07:24;;;;;;;6.53;5.93;;;13.70;99.90;;;;;;4946598;29;20027;-41
2022/06/01 07:09:50;;;;;;;8.50;7.00;;;13.80;99.90;;;;;;4947195;28;20031;-35
2022/06/01 07:12:16;;;;;;;8.13;7.10;;;14.00;99.90;;;;;;4947031;29;20031;-37
2022/06/01 07:14:41;;;;;;;6.78;6.07;;;14.20;99.90;;;;;;4947175;28;20386;-36
2022/06/01 07:17:07;;;;;;;5.88;5.38;;;14.20;99.90;;;;;;4948720;28;20418;-36
2022/06/01 07:19:33;;;;;;;5.90;5.32;;;14.30;99.90;;;;;;4950504;29;20123;-37
2022/06/01 07:21:59;;;;;;;5.45;4.95;;;14.40;99.90;;;;;;4951134;28;20031;-36
2022/06/01 07:24:24;;;;;;;6.07;5.45;;;14.40;99.90;;;;;;4949613;29;20045;-37
2022/06/01 07:26:50;;;;;;;5.45;4.95;;;14.40;99.90;;;;;;4951170;28;20034;-36
2022/06/01 07:29:21;;;;;;;4.97;4.57;;;14.30;99.90;;;;;;4951061;28;20023;-35
2022/06/01 07:31:47;;;;;;;5.85;4.78;;;14.30;99.90;;;;;;4949836;28;20030;-37
2022/06/01 07:34:13;;;;;;;5.32;4.63;;;14.40;99.90;;;;;;4950605;28;20409;-36
2022/06/01 07:36:39;;;;;;;4.25;3.85;;;14.40;99.90;;;;;;4950776;28;20479;-35
2022/06/01 07:44:39;;;;;;;3.95;3.65;;;14.60;99.90;;;;;;4949654;29;20043;-36
2022/06/01 07:47:05;;;;;;;4.40;4.00;;;14.60;99.90;;;;;;4950964;29;20054;-36
2022/06/01 07:49:30;;;;;;;3.72;3.33;;;14.70;99.90;;;;;;4949809;28;20059;-36
2022/06/01 07:51:56;;;;;;;3.47;3.17;;;14.70;99.90;;;;;;4949945;29;20553;-35
2022/06/01 07:54:22;;;;;;;3.25;2.95;;;14.80;99.90;;;;;;4950983;29;20486;-35
2022/06/01 07:56:47;;;;;;;4.10;3.78;;;14.90;99.90;;;;;;4950114;29;20082;-35
2022/06/01 07:59:13;;;;;;;4.07;3.67;;;15.00;99.90;;;;;;4950496;29;20031;-35
2022/06/01 08:01:39;;;;;;;5.70;3.90;;;15.10;99.90;;;;;;4949813;29;20038;-36
2022/06/01 08:04:06;;;;;;;4.35;3.17;;;15.10;99.90;;;;;;4950692;29;20065;-37
2022/06/01 08:06:34;;;;;;;4.55;4.15;;;15.20;99.90;;;;;;4949905;28;20027;-36
2022/06/01 08:08:59;;;;;;;4.82;4.35;;;15.20;99.90;;;;;;4950722;28;20039;-36
2022/06/01 08:14:11;;;;;;;6.05;5.45;;;15.00;99.90;;;;;;4949913;28;20046;-35
2022/06/01 08:16:38;;;;;;;6.43;5.82;;;15.00;99.90;;;;;;4949476;29;20062;-35
2022/06/01 08:19:04;;;;;;;6.40;5.15;;;14.90;99.90;;;;;;4950335;28;20430;-35
2022/06/01 08:21:31;;;;;;;4.80;4.32;;;14.80;99.90;;;;;;4948790;29;20526;-35
2022/06/01 08:23:56;;;;;;;5.82;4.78;;;14.80;99.90;;;;;;4949946;28;20457;-36
2022/06/01 08:26:22;;;;;;;4.78;4.38;;;14.80;99.90;;;;;;4949404;29;20028;-34
2022/06/01 08:28:47;;;;;;;5.00;4.35;;;14.80;99.90;;;;;;4948481;28;20046;-34
2022/06/01 08:31:13;;;;;;;6.00;4.60;;;14.90;99.90;;;;;;4949584;29;20086;-35
2022/06/01 08:33:42;;;;;;;4.50;4.10;;;15.00;99.90;;;;;;4947324;28;20138;-34
2022/06/01 08:36:08;;;;;;;3.92;3.50;;;15.20;99.90;;;;;;4949118;28;20102;-36
2022/06/01 08:38:34;;;;;;;3.83;3.53;;;15.30;99.90;;;;;;4949326;29;20306;-35
2022/06/01 08:41:09;;;;;;;4.28;3.60;;;15.50;99.90;;;;;;4949147;29;20035;-35
2022/06/01 08:43:46;;;;;;;5.18;3.97;;;15.70;99.90;;;;;;4949108;29;20566;-35
2022/06/01 08:46:13;;;;;;;5.03;4.00;;;15.70;99.90;;;;;;4949570;29;20028;-34
2022/06/01 08:48:57;;;;;;;4.25;3.63;;;15.80;99.90;;;;;;4949144;28;20031;-36
2022/06/01 08:51:26;;;;;;;3.10;2.80;;;15.90;99.90;;;;;;4949174;28;20058;-35
2022/06/01 08:53:52;;;;;;;4.30;2.67;;;16.00;99.90;;;;;;4949759;28;20081;-36
2022/06/01 08:56:40;;;;;;;3.47;3.17;;;16.10;99.90;;;;;;4949209;28;20074;-35
2022/06/01 08:59:11;;;;;;;3.00;2.70;;;16.20;99.90;;;;;;4949458;28;20028;-34
2022/06/01 09:02:19;;;;;;;2.60;2.40;;;16.40;99.90;;;;;;4948910;29;20094;-35
2022/06/01 09:05:07;;;;;;;2.85;2.60;;;16.60;99.90;;;;;;4929901;29;20125;-34
2022/06/01 09:07:39;;;;;;;2.95;2.33;;;16.80;99.90;;;;;;4949835;28;20027;-34
2022/06/01 09:10:41;;;;;;;3.00;2.47;;;16.90;99.90;;;;;;4948634;28;20435;-34
2022/06/01 09:13:10;;;;;;;2.63;2.42;;;17.00;99.90;;;;;;4949316;28;20102;-36
2022/06/01 09:15:51;;;;;;;3.28;2.08;;;17.10;99.90;;;;;;4948749;28;20266;-36
2022/06/01 09:18:22;;;;;;;2.13;2.00;;;17.20;99.90;;;;;;4948339;28;20463;-35
2022/06/01 09:23:32;;;;;;;2.33;2.13;;;17.20;99.90;;;;;;4947722;29;20105;-36
2022/06/01 09:25:58;;;;;;;2.65;2.45;;;17.20;99.90;;;;;;4949047;29;20031;-34
2022/06/01 09:28:28;;;;;;;4.20;2.42;;;17.00;99.90;;;;;;4948907;29;20024;-34
2022/06/01 09:31:35;;;;;;;2.58;2.38;;;16.90;99.90;;;;;;4938260;29;20035;-34
2022/06/01 09:34:35;;;;;;;2.35;2.15;;;16.80;99.90;;;;;;4949391;28;20035;-35
2022/06/01 09:37:06;;;;;;;3.10;2.80;;;16.70;99.90;;;;;;4949494;28;20019;-34
2022/06/01 09:39:35;;;;;;;2.67;2.47;;;16.70;99.90;;;;;;4946953;28;20882;-34
2022/06/01 09:42:14;;;;;;;2.95;2.75;;;16.70;99.90;;;;;;4948319;29;20113;-35
2022/06/01 09:44:44;;;;;;;2.97;2.78;;;16.70;99.90;;;;;;4947790;28;20402;-35
2022/06/01 09:47:28;;;;;;;3.05;2.60;;;16.60;99.90;;;;;;4949359;28;20379;-35
2022/06/01 09:49:57;;;;;;;3.47;2.70;;;16.60;99.90;;;;;;4948214;28;20027;-35
2022/06/01 09:52:37;;;;;;;4.95;3.95;;;16.50;99.90;;;;;;4947538;28;20047;-35
2022/06/01 09:55:29;;;;;;;4.93;3.55;;;16.50;99.80;;;;;;4948868;28;20154;-35
2022/06/01 09:58:10;;;;;;;2.83;2.55;;;16.40;99.80;;;;;;4947513;29;20035;-36
2022/06/01 10:06:27;;;;;;;1.92;1.70;;;16.40;99.90;;;;;;4946093;29;20038;-35
2022/06/01 10:08:59;;;;;;;1.67;1.40;;;16.40;98.40;;;;;;4949119;28;20097;-35
2022/06/01 10:11:37;;;;;;;1.60;1.20;;;16.30;98.30;;;;;;4947554;29;20487;-36
2022/06/01 10:14:18;;;;;;;2.25;1.50;;;16.20;98.10;;;;;;4947472;28;20023;-35
2022/06/01 10:17:02;;;;;;;2.00;1.90;;;16.20;98.40;;;;;;4947469;28;20474;-35
2022/06/01 10:20:14;;;;;;;1.60;1.50;;;16.20;98.60;;;;;;4947097;28;20455;-35
2022/06/01 10:22:46;;;;;;;3.25;2.60;;;16.20;98.80;;;;;;4915171;29;20046;-35
2022/06/01 10:25:27;;;;;;;2.60;2.40;;;16.30;98.80;;;;;;4948068;28;20033;-35
2022/06/01 10:28:00;;;;;;;2.20;2.00;;;16.40;98.80;;;;;;4937618;29;20050;-35
2022/06/01 10:30:31;;;;;;;4.45;2.20;;;16.60;98.70;;;;;;4947635;28;20466;-35
2022/06/01 10:33:08;;;;;;;2.95;2.22;;;16.80;98.50;;;;;;4947923;28;20526;-35
2022/06/01 10:35:42;;;;;;;2.05;1.90;;;17.10;98.30;;;;;;4946759;28;20101;-35
2022/06/01 10:38:23;;;;;;;2.63;2.13;;;17.30;98.10;;;;;;4948829;28;20023;-35
2022/06/01 10:41:09;;;;;;;2.05;1.90;;;17.60;97.70;;;;;;4947421;28;20043;-34
2022/06/01 10:43:49;;;;;;;3.85;2.40;;;17.80;97.20;;;;;;4939238;29;20031;-35
2022/06/01 10:46:38;;;;;;;2.85;2.00;;;17.90;96.50;;;;;;4947873;29;20384;-36
2022/06/01 10:49:10;;;;;;;2.10;1.90;;;17.90;96.30;;;;;;4947572;29;20023;-35
2022/06/01 10:51:37;;;;;;;2.35;2.15;;;17.90;96.40;;;;;;4946182;29;20439;-35
2022/06/01 10:54:16;;;;;;;4.80;2.10;;;17.70;96.30;;;;;;4947756;29;20739;-35
2022/06/01 10:56:42;;;;;;;2.20;2.00;;;17.60;96.80;;;;;;4946894;28;20426;-35
2022/06/01 10:59:12;;;;;;;2.45;2.25;;;17.40;97.20;;;;;;4946109;29;20559;-35
2022/06/01 11:02:02;;;;;;;2.60;2.40;;;17.20;97.60;;;;;;4946608;28;20015;-35
2022/06/01 11:04:37;;;;;;;3.53;3.10;;;17.10;97.90;;;;;;4946860;28;20067;-35
2022/06/01 11:07:17;;;;;;;3.35;2.75;;;16.90;98.10;;;;;;4948317;29;20385;-35
2022/06/01 11:10:04;;;;;;;6.82;4.20;;;16.70;98.40;;;;;;4946907;29;20033;-35
2022/06/01 11:12:46;;;;;;;3.50;3.03;;;16.70;98.70;;;;;;4946841;28;20498;-35
2022/06/01 11:15:29;;;;;;;2.45;2.00;;;16.60;98.80;;;;;;4947491;29;20494;-36
2022/06/01 11:18:02;;;;;;;;;;;16.70;98.80;;;;;;4947608;28;20035;-35
2022/06/01 11:20:46;;;;;;;1.40;1.30;;;16.80;98.60;;;;;;4946741;28;19929;-37
2022/06/01 11:23:40;;;;;;;1.42;1.10;;;16.80;98.30;;;;;;4946867;28;20407;-36
2022/06/01 11:26:26;;;;;;;1.10;0.98;;;16.80;97.30;;;;;;4928679;29;20034;-35
2022/06/01 11:29:22;;;;;;;1.98;1.55;;;16.70;97.30;;;;;;4945151;29;20035;-36
2022/06/01 11:31:52;;;;;;;1.67;1.58;;;16.70;97.50;;;;;;4946673;29;20027;-36
2022/06/01 11:34:25;;;;;;;1.55;1.45;;;16.70;97.70;;;;;;4946880;28;20150;-35
2022/06/01 11:37:14;;;;;;;1.50;1.40;;;16.80;98.30;;;;;;4946714;29;20503;-35
2022/06/01 11:40:07;;;;;;;2.33;1.80;;;16.90;98.10;;;;;;4946021;28;20043;-33
2022/06/01 11:42:44;;;;;;;2.85;2.22;;;17.00;98.10;;;;;;4946574;28;20038;-35
2022/06/01 11:45:18;;;;;;;2.50;2.30;;;17.10;98.30;;;;;;4946347;28;20051;-36
2022/06/01 11:47:51;;;;;;;3.10;2.80;;;17.10;98.40;;;;;;4947378;28;20114;-35
2022/06/01 11:50:49;;;;;;;;;;;17.10;98.70;;;;;;4947507;29;20027;-33
2022/06/01 11:53:46;;;;;;;3.00;2.80;;;17.30;99.00;;;;;;4941408;28;20012;-35
2022/06/01 11:56:30;;;;;;;3.60;2.90;;;17.40;98.90;;;;;;4940414;29;20047;-34
2022/06/01 11:58:58;;;;;;;2.95;2.63;;;17.50;98.80;;;;;;4946315;28;20042;-35
2022/06/01 12:01:33;;;;;;;3.03;2.72;;;17.60;98.80;;;;;;4947021;29;20035;-35
2022/06/01 12:04:36;;;;;;;3.55;3.22;;;17.80;98.90;;;;;;4948239;28;20027;-35
2022/06/01 12:07:34;;;;;;;3.47;3.17;;;18.00;99.00;;;;;;4943186;29;20062;-35
2022/06/01 12:10:05;;;;;;;3.90;3.08;;;18.30;98.80;;;;;;4950305;28;20027;-35
2022/06/01 12:12:36;;;;;;;3.15;2.90;;;18.50;98.50;;;;;;4949814;29;20118;-35
2022/06/01 12:15:02;;;;;;;3.22;2.47;;;18.50;98.50;;;;;;4950286;29;20482;-36
2022/06/01 12:17:35;;;;;;;3.30;2.90;;;18.40;98.60;;;;;;4949607;29;20031;-35
2022/06/01 12:20:28;;;;;;;2.45;2.25;;;18.40;98.70;;;;;;4949841;28;20027;-35
2022/06/01 12:29:04;;;;;;;0.93;0.73;;;18.20;94.20;;;;;;4949824;29;20410;-35
2022/06/01 12:31:36;;;;;;;0.90;0.80;;;18.10;94.40;;;;;;4949866;28;20035;-35
2022/06/01 12:34:01;;;;;;;1.70;1.00;;;18.10;93.00;;;;;;4950239;28;20379;-34
2022/06/01 12:36:36;;;;;;;1.30;0.95;;;18.00;93.10;;;;;;4949202;28;20039;-36
2022/06/01 12:39:07;;;;;;;1.10;0.90;;;18.00;93.70;;;;;;4950258;28;20035;-36
2022/06/01 12:41:36;;;;;;;0.60;0.60;;;18.10;93.70;;;;;;4948021;29;20074;-35
2022/06/01 12:44:07;;;;;;;0.98;0.70;;;18.20;93.30;;;;;;4950232;28;20382;-34
2022/06/01 12:46:45;;;;;;;0.60;0.60;;;18.30;91.80;;;;;;4948959;29;20034;-34
2022/06/01 12:49:45;;;;;;;0.73;0.65;;;18.30;91.00;;;;;;4949208;28;20031;-34
2022/06/01 12:52:15;;;;;;;0.50;0.50;;;18.30;89.00;;;;;;4950026;28;20047;-34
2022/06/01 12:55:03;;;;;;;1.33;0.70;;;18.40;89.60;;;;;;4948383;29;20043;-34
2022/06/01 12:57:31;;;;;;;0.63;0.60;;;18.40;89.10;;;;;;4949459;28;20078;-36
2022/06/01 13:00:11;;;;;;;1.23;0.80;;;18.40;89.80;;;;;;4949454;29;20031;-35
2022/06/01 13:02:39;;;;;;;1.92;0.80;;;18.60;90.00;;;;;;4946070;29;20050;-37
2022/06/01 13:05:08;;;;;;;0.98;0.75;;;18.70;90.20;;;;;;4949661;29;20031;-36
2022/06/01 13:07:41;;;;;;;0.85;0.85;;;19.00;90.30;;;;;;4947974;29;20061;-36
2022/06/01 13:10:11;;;;;;;1.08;0.98;;;19.10;90.20;;;;;;4948949;28;20090;-37
2022/06/01 13:12:37;;;;;;;0.98;0.65;;;19.10;89.80;;;;;;4949196;28;20458;-35
2022/06/01 13:15:23;;;;;;;0.95;0.80;;;19.10;89.50;;;;;;4949486;28;20098;-36
2022/06/01 13:17:56;;;;;;;1.55;0.70;;;19.10;86.80;;;;;;4948844;28;20029;-34
2022/06/01 13:20:44;;;;;;;1.00;0.85;;;18.90;87.50;;;;;;4949339;29;20117;-34
2022/06/01 13:23:36;;;;;;;1.95;1.13;;;18.90;87.20;;;;;;4948443;29;20129;-35
2022/06/01 13:26:05;;;;;;;2.10;0.93;;;18.80;86.20;;;;;;4950076;28;20111;-35
2022/06/01 13:28:31;;;;;;;1.10;1.10;;;18.60;87.70;;;;;;4948847;28;20035;-36
2022/06/01 13:30:58;;;;;;;1.50;1.00;;;18.60;88.40;;;;;;4948273;28;20035;-35